createdAt,value
2019-05-14T00:02:18.294Z,59.63
2019-05-14T00:04:45.945Z,58.27
2019-05-14T00:07:13.591Z,58.08
2019-05-14T00:09:41.619Z,58.73
2019-05-14T00:12:11.299Z,58.98
2019-05-14T00:14:40.336Z,58.11
2019-05-14T00:17:08.314Z,56.48
2019-05-14T00:19:36.023Z,56.94
2019-05-14T00:22:03.647Z,61.72
2019-05-14T00:24:32.377Z,59.80
2019-05-14T00:27:02.075Z,62.51
2019-05-14T00:29:31.967Z,60.32
2019-05-14T00:31:59.268Z,60.30
2019-05-14T00:34:26.910Z,60.04
2019-05-14T00:36:54.649Z,59.25
2019-05-14T00:39:22.259Z,62.22
2019-05-14T00:41:51.251Z,59.68
2019-05-14T00:44:21.386Z,60.40
2019-05-14T00:46:48.651Z,58.34
2019-05-14T00:49:16.275Z,59.34
2019-05-14T00:51:43.907Z,59.92
2019-05-14T00:54:11.550Z,59.53
2019-05-14T00:56:41.712Z,58.87
2019-05-14T00:59:11.257Z,60.59
2019-05-14T01:01:38.695Z,59.65
2019-05-14T01:04:06.367Z,59.17
2019-05-14T01:06:33.995Z,59.27
2019-05-14T01:09:01.640Z,61.41
2019-05-14T01:11:31.337Z,60.03
2019-05-14T01:13:58.674Z,62.72
2019-05-14T01:16:26.307Z,61.20
2019-05-14T01:18:53.972Z,61.84
2019-05-14T01:21:22.035Z,61.10
2019-05-14T01:23:51.393Z,61.54
2019-05-14T01:26:21.603Z,60.95
2019-05-14T01:28:48.698Z,61.67
2019-05-14T01:31:16.382Z,60.94
2019-05-14T01:33:44.023Z,59.59
2019-05-14T01:36:12.358Z,60.92
2019-05-14T01:38:41.905Z,60.75
2019-05-14T01:41:11.696Z,60.04
2019-05-14T01:43:39.043Z,60.59
2019-05-14T01:46:06.668Z,62.80
2019-05-14T01:48:34.302Z,61.50
2019-05-14T01:51:01.950Z,60.57
2019-05-14T01:53:31.163Z,62.37
2019-05-14T01:56:01.332Z,63.34
2019-05-14T01:58:28.520Z,62.19
2019-05-14T02:00:56.139Z,61.66
2019-05-14T02:03:23.775Z,61.96
2019-05-14T02:05:52.054Z,59.85
2019-05-14T02:08:21.425Z,60.02
2019-05-14T02:10:49.432Z,60.29
2019-05-14T02:13:17.075Z,63.08
2019-05-14T02:15:44.694Z,62.64
2019-05-14T02:18:12.332Z,62.82
2019-05-14T02:20:41.466Z,63.09
2019-05-14T02:23:09.209Z,63.04
2019-05-14T02:25:36.835Z,62.04
2019-05-14T02:28:04.463Z,62.44
2019-05-14T02:30:46.036Z,61.92
2019-05-14T02:33:01.476Z,62.75
2019-05-14T02:35:29.900Z,62.96
2019-05-14T02:37:59.607Z,62.55
2019-05-14T02:40:29.431Z,61.86
2019-05-14T02:42:59.289Z,61.35
2019-05-14T02:45:25.944Z,61.08
2019-05-14T02:47:53.609Z,61.23
2019-05-14T02:50:21.298Z,61.04
2019-05-14T02:52:49.814Z,60.67
2019-05-14T02:55:19.347Z,60.55
2019-05-14T02:57:49.826Z,60.59
2019-05-14T03:00:19.303Z,60.56
2019-05-14T03:02:49.162Z,60.50
2019-05-14T03:05:19.107Z,60.39
2019-05-14T03:07:45.697Z,60.49
2019-05-14T03:10:13.406Z,60.39
2019-05-14T03:12:41.046Z,60.51
2019-05-14T03:15:09.970Z,60.94
2019-05-14T03:17:40.432Z,61.06
2019-05-14T03:20:09.143Z,60.85
2019-05-14T03:22:46.560Z,60.83
2019-05-14T03:25:09.872Z,60.71
2019-05-14T03:27:36.405Z,59.78
2019-05-14T03:30:04.732Z,60.49
2019-05-14T03:32:33.360Z,60.58
2019-05-14T03:35:04.080Z,60.53
2019-05-14T03:37:31.193Z,60.28
2019-05-14T03:39:59.462Z,60.37
2019-05-14T03:42:29.199Z,60.50
2019-05-14T03:44:59.383Z,60.91
2019-05-14T03:47:26.212Z,60.72
2019-05-14T03:49:53.917Z,60.49
2019-05-14T03:52:21.552Z,61.55
2019-05-14T03:54:49.935Z,60.92
2019-05-14T03:57:20.093Z,61.09
2019-05-14T03:59:49.574Z,61.15
2019-05-14T04:02:19.610Z,61.06
2019-05-14T04:04:45.908Z,60.37
2019-05-14T04:07:14.088Z,60.64
2019-05-14T04:09:43.677Z,62.10
2019-05-14T04:12:12.712Z,62.76
2019-05-14T04:14:41.873Z,61.42
2019-05-14T04:17:15.128Z,63.63
2019-05-14T04:19:41.168Z,63.79
2019-05-14T04:22:10.327Z,64.73
2019-05-14T04:24:41.335Z,64.56
2019-05-14T04:27:13.081Z,64.34
2019-05-14T04:29:40.997Z,65.90
2019-05-14T04:32:10.381Z,66.36
2019-05-14T04:34:40.879Z,62.66
2019-05-14T04:37:10.116Z,62.24
2019-05-14T04:39:39.589Z,62.02
2019-05-14T04:42:09.687Z,64.68
2019-05-14T04:44:40.033Z,63.21
2019-05-14T04:47:22.933Z,62.75
2019-05-14T04:49:35.219Z,61.77
2019-05-14T04:52:03.217Z,62.04
2019-05-14T04:54:30.870Z,63.52
2019-05-14T04:56:59.886Z,61.53
2019-05-14T04:59:29.933Z,61.80
2019-05-14T05:01:59.999Z,64.35
2019-05-14T05:04:29.725Z,62.78
2019-05-14T05:06:59.023Z,62.39
2019-05-14T05:09:25.339Z,63.53
2019-05-14T05:11:53.046Z,62.11
2019-05-14T05:14:23.772Z,62.54
2019-05-14T05:16:50.072Z,62.19
2019-05-14T05:19:19.677Z,62.40
2019-05-14T05:21:48.078Z,62.09
2019-05-14T05:24:18.285Z,62.33
2019-05-14T05:26:45.295Z,61.11
2019-05-14T05:29:12.949Z,61.49
2019-05-14T05:31:40.634Z,61.88
2019-05-14T05:34:08.934Z,61.00
2019-05-14T05:36:38.051Z,61.45
2019-05-14T05:39:08.611Z,60.59
2019-05-14T05:41:38.299Z,60.94
2019-05-14T05:44:05.398Z,62.68
2019-05-14T05:46:33.064Z,61.82
2019-05-14T05:49:00.819Z,60.87
2019-05-14T05:51:28.880Z,61.20
2019-05-14T05:53:58.735Z,61.05
2019-05-14T05:56:26.120Z,62.31
2019-05-14T05:58:53.782Z,61.28
2019-05-14T06:01:21.418Z,62.18
2019-05-14T06:03:49.321Z,62.25
2019-05-14T06:06:19.197Z,61.43
2019-05-14T06:08:48.962Z,61.66
2019-05-14T06:11:19.129Z,60.93
2019-05-14T06:13:48.306Z,62.36
2019-05-14T06:16:15.075Z,61.92
2019-05-14T06:18:42.717Z,61.69
2019-05-14T06:21:10.415Z,61.65
2019-05-14T06:23:38.537Z,61.58
2019-05-14T06:26:11.022Z,61.58
2019-05-14T06:28:35.902Z,61.74
2019-05-14T06:31:03.539Z,61.83
2019-05-14T06:33:31.256Z,61.09
2019-05-14T06:35:59.338Z,60.85
2019-05-14T06:38:29.426Z,60.17
2019-05-14T06:40:59.085Z,60.21
2019-05-14T06:43:28.505Z,59.84
2019-05-14T06:45:58.330Z,59.61
2019-05-14T06:48:30.680Z,59.64
2019-05-14T06:50:54.323Z,59.26
2019-05-14T06:53:22.035Z,58.61
2019-05-14T06:55:49.698Z,58.29
2019-05-14T06:58:20.275Z,57.67
2019-05-14T07:00:49.068Z,57.45
2019-05-14T07:03:18.007Z,57.17
2019-05-14T07:05:45.450Z,57.07
2019-05-14T07:08:13.154Z,56.72
2019-05-14T07:10:40.786Z,56.56
2019-05-14T07:13:08.683Z,56.28
2019-05-14T07:15:38.645Z,55.30
2019-05-14T07:18:08.479Z,54.90
2019-05-14T07:20:35.293Z,54.13
2019-05-14T07:23:02.995Z,54.07
2019-05-14T07:25:30.626Z,53.97
2019-05-14T07:27:58.398Z,52.64
2019-05-14T07:30:28.342Z,52.75
2019-05-14T07:32:55.460Z,51.26
2019-05-14T07:35:23.124Z,50.26
2019-05-14T07:37:50.756Z,50.04
2019-05-14T07:40:19.190Z,50.97
2019-05-14T07:42:48.771Z,49.97
2019-05-14T07:45:18.459Z,48.82
2019-05-14T07:47:45.939Z,50.64
2019-05-14T07:50:13.731Z,49.00
2019-05-14T07:52:45.309Z,49.27
2019-05-14T07:55:11.125Z,48.57
2019-05-14T07:57:39.400Z,48.53
2019-05-14T08:00:08.834Z,48.14
2019-05-14T08:02:37.992Z,47.42
2019-05-14T08:05:08.624Z,47.99
2019-05-14T08:07:35.606Z,48.32
2019-05-14T08:10:04.404Z,47.06
2019-05-14T08:12:32.095Z,46.23
2019-05-14T08:15:14.429Z,46.19
2019-05-14T08:17:29.223Z,47.40
2019-05-14T08:19:58.352Z,47.41
2019-05-14T08:22:26.132Z,46.51
2019-05-14T08:24:53.755Z,47.37
2019-05-14T08:27:21.414Z,47.10
2019-05-14T08:29:49.090Z,46.12
2019-05-14T08:32:18.908Z,46.27
2019-05-14T08:34:47.988Z,45.58
2019-05-14T08:37:15.487Z,45.97
2019-05-14T08:39:43.120Z,44.90
2019-05-14T08:42:10.769Z,44.82
2019-05-14T08:44:39.148Z,45.33
2019-05-14T08:47:09.321Z,45.50
2019-05-14T08:49:45.391Z,45.09
2019-05-14T08:52:08.619Z,44.54
2019-05-14T08:54:35.183Z,43.82
2019-05-14T08:57:02.944Z,45.25
2019-05-14T08:59:30.607Z,41.58
2019-05-14T09:02:06.360Z,42.89
2019-05-14T09:04:30.387Z,41.87
2019-05-14T09:06:58.444Z,39.54
2019-05-14T09:09:28.690Z,41.98
2019-05-14T09:11:55.509Z,43.63
2019-05-14T09:14:23.210Z,40.94
2019-05-14T09:16:51.340Z,42.71
2019-05-14T09:19:19.468Z,39.26
2019-05-14T09:21:49.401Z,34.82
2019-05-14T09:24:18.203Z,34.14
2019-05-14T09:26:48.238Z,31.72
2019-05-14T09:29:22.069Z,33.57
2019-05-14T09:31:44.725Z,33.02
2019-05-14T09:34:12.355Z,30.77
2019-05-14T09:36:39.995Z,32.56
2019-05-14T09:39:11.843Z,32.91
2019-05-14T09:41:38.808Z,31.17
2019-05-14T09:44:09.145Z,32.31
2019-05-14T09:46:38.276Z,32.74
2019-05-14T09:49:05.267Z,30.84
2019-05-14T09:51:32.930Z,32.00
2019-05-14T09:54:00.579Z,30.75
2019-05-14T09:56:29.065Z,32.16
2019-05-14T09:58:58.678Z,31.77
2019-05-14T10:01:26.326Z,33.28
2019-05-14T10:03:53.963Z,33.41
2019-05-14T10:06:21.611Z,34.16
2019-05-14T10:08:49.251Z,33.73
2019-05-14T10:11:17.264Z,34.14
2019-05-14T10:13:44.971Z,33.40
2019-05-14T10:16:12.728Z,34.66
2019-05-14T10:18:40.439Z,35.37
2019-05-14T10:21:08.617Z,34.44
2019-05-14T10:23:38.719Z,32.24
2019-05-14T10:26:05.887Z,30.77
2019-05-14T10:28:33.527Z,30.38
2019-05-14T10:31:03.733Z,29.16
2019-05-14T10:33:30.888Z,31.38
2019-05-14T10:35:59.010Z,28.15
2019-05-14T10:38:29.347Z,27.52
2019-05-14T10:40:58.254Z,28.46
2019-05-14T10:43:28.564Z,27.94
2019-05-14T10:45:54.863Z,26.31
2019-05-14T10:48:22.502Z,26.81
2019-05-14T10:50:57.292Z,27.66
2019-05-14T10:53:20.335Z,24.83
2019-05-14T10:55:48.689Z,25.10
2019-05-14T10:58:19.451Z,25.93
2019-05-14T11:00:49.492Z,23.47
2019-05-14T11:03:18.586Z,25.55
2019-05-14T11:05:48.149Z,24.97
2019-05-14T11:08:15.737Z,24.71
2019-05-14T11:10:43.407Z,25.98
2019-05-14T11:13:11.095Z,27.37
2019-05-14T11:15:39.463Z,27.28
2019-05-14T11:18:08.650Z,25.40
2019-05-14T11:20:41.715Z,27.14
2019-05-14T11:23:05.962Z,28.26
2019-05-14T11:25:33.602Z,29.30
2019-05-14T11:28:01.284Z,28.62
2019-05-14T11:30:29.002Z,27.42
2019-05-14T11:32:58.392Z,26.77
2019-05-14T11:35:28.610Z,27.21
2019-05-14T11:37:55.443Z,27.39
2019-05-14T11:40:23.080Z,25.88
2019-05-14T11:42:50.715Z,26.92
2019-05-14T11:45:18.427Z,24.68
2019-05-14T11:47:46.089Z,26.49
2019-05-14T11:50:14.271Z,26.28
2019-05-14T11:52:41.964Z,23.62
2019-05-14T11:55:10.659Z,24.35
2019-05-14T11:57:38.342Z,24.60
2019-05-14T12:00:08.516Z,26.60
2019-05-14T12:02:38.518Z,26.73
2019-05-14T12:05:08.671Z,24.04
2019-05-14T12:07:35.650Z,22.13
2019-05-14T12:10:04.623Z,23.04
2019-05-14T12:12:32.276Z,23.03
2019-05-14T12:14:59.927Z,24.93
2019-05-14T12:17:29.482Z,25.34
2019-05-14T12:19:59.368Z,25.71
2019-05-14T12:22:28.599Z,26.28
2019-05-14T12:24:55.721Z,23.07
2019-05-14T12:27:23.371Z,24.43
2019-05-14T12:29:51.072Z,24.01
2019-05-14T12:32:19.065Z,24.46
2019-05-14T12:34:48.921Z,25.48
2019-05-14T12:37:18.385Z,24.06
2019-05-14T12:39:45.471Z,23.63
2019-05-14T12:42:13.147Z,23.19
2019-05-14T12:47:09.616Z,23.99
2019-05-14T12:49:38.713Z,24.95
2019-05-14T12:52:21.041Z,25.13
2019-05-14T12:54:38.457Z,26.25
2019-05-14T12:57:05.287Z,24.73
2019-05-14T12:59:32.935Z,25.14
2019-05-14T13:02:00.956Z,26.00
2019-05-14T13:04:28.706Z,25.62
2019-05-14T13:06:59.538Z,25.51
2019-05-14T13:09:25.719Z,25.54
2019-05-14T13:11:54.252Z,25.62
2019-05-14T13:14:21.891Z,26.47
2019-05-14T13:16:49.526Z,26.89
2019-05-14T13:19:18.982Z,26.78
2019-05-14T13:21:48.878Z,26.56
2019-05-14T13:24:17.998Z,25.97
2019-05-14T13:26:45.238Z,25.61
2019-05-14T13:29:12.871Z,26.35
2019-05-14T13:31:40.557Z,25.57
2019-05-14T13:34:09.025Z,25.98
2019-05-14T13:36:39.471Z,26.23
2019-05-14T13:39:08.971Z,26.38
2019-05-14T13:41:35.802Z,26.65
2019-05-14T13:44:17.427Z,26.82
2019-05-14T13:46:32.896Z,26.04
2019-05-14T13:49:00.578Z,26.06
2019-05-14T13:51:32.645Z,25.84
2019-05-14T13:53:58.936Z,25.71
2019-05-14T13:56:28.330Z,26.50
2019-05-14T13:58:58.871Z,26.52
2019-05-14T14:01:25.611Z,26.90
2019-05-14T14:04:06.358Z,26.81
2019-05-14T14:06:22.731Z,27.04
2019-05-14T14:08:50.372Z,25.42
2019-05-14T14:11:19.410Z,26.45
2019-05-14T14:13:49.009Z,25.38
2019-05-14T14:16:19.318Z,25.90
2019-05-14T14:18:49.753Z,25.53
2019-05-14T14:21:15.597Z,24.88
2019-05-14T14:23:43.245Z,24.14
2019-05-14T14:26:10.923Z,25.25
2019-05-14T14:28:39.650Z,25.49
2019-05-14T14:31:10.828Z,25.34
2019-05-14T14:33:39.165Z,23.69
2019-05-14T14:36:06.420Z,22.71
2019-05-14T14:38:34.124Z,23.60
2019-05-14T14:41:01.793Z,23.37
2019-05-14T14:43:29.742Z,24.37
2019-05-14T14:48:30.284Z,24.52
2019-05-14T14:50:58.615Z,23.21
2019-05-14T14:53:42.813Z,23.44
2019-05-14T14:56:00.057Z,23.05
2019-05-14T14:58:28.524Z,23.79
2019-05-14T15:00:55.139Z,23.77
2019-05-14T15:03:22.821Z,23.56
2019-05-14T15:05:50.531Z,23.52
2019-05-14T15:08:20.082Z,23.48
2019-05-14T15:10:48.607Z,22.88
2019-05-14T15:13:16.530Z,23.18
2019-05-14T15:15:44.179Z,23.48
2019-05-14T15:18:14.035Z,22.22
2019-05-14T15:20:41.304Z,24.42
2019-05-14T15:23:10.012Z,24.52
2019-05-14T15:25:37.906Z,23.99
2019-05-14T15:28:05.649Z,23.79
2019-05-14T15:30:33.427Z,24.00
2019-05-14T15:33:01.276Z,24.79
2019-05-14T15:35:28.930Z,24.64
2019-05-14T15:37:58.790Z,25.03
2019-05-14T15:40:28.706Z,25.41
2019-05-14T15:42:55.291Z,24.74
2019-05-14T15:45:22.915Z,25.45
2019-05-14T15:47:50.547Z,25.36
2019-05-14T15:50:19.940Z,24.42
2019-05-14T15:52:48.667Z,23.55
2019-05-14T15:55:18.341Z,23.66
2019-05-14T15:57:46.327Z,22.06
2019-05-14T16:00:13.977Z,21.97
2019-05-14T16:02:41.643Z,21.28
2019-05-14T16:05:10.131Z,22.25
2019-05-14T16:07:39.170Z,22.21
2019-05-14T16:10:08.623Z,22.32
2019-05-14T16:12:39.504Z,22.37
2019-05-14T16:15:08.644Z,21.85
2019-05-14T16:17:45.591Z,23.62
2019-05-14T16:20:08.759Z,23.50
2019-05-14T16:22:39.341Z,23.44
2019-05-14T16:25:08.846Z,23.21
2019-05-14T16:27:39.149Z,24.22
2019-05-14T16:30:09.417Z,24.29
2019-05-14T16:32:36.215Z,24.58
2019-05-14T16:35:05.123Z,23.63
2019-05-14T16:37:32.763Z,24.36
2019-05-14T16:40:00.407Z,24.72
2019-05-14T16:42:29.288Z,24.93
2019-05-14T16:44:57.043Z,25.04
2019-05-14T16:47:24.766Z,25.54
2019-05-14T16:49:52.481Z,25.12
2019-05-14T16:52:20.143Z,25.09
2019-05-14T16:54:48.829Z,25.75
2019-05-14T16:57:18.596Z,25.40
2019-05-14T16:59:45.971Z,24.87
2019-05-14T17:02:13.603Z,24.27
2019-05-14T17:04:41.256Z,24.80
2019-05-14T17:07:09.680Z,24.78
2019-05-14T17:09:38.450Z,23.96
2019-05-14T17:12:08.515Z,23.68
2019-05-14T17:14:38.341Z,24.29
2019-05-14T17:17:05.348Z,24.51
2019-05-14T17:19:32.992Z,23.93
2019-05-14T17:22:00.788Z,23.85
2019-05-14T17:24:29.160Z,23.38
2019-05-14T17:26:58.313Z,23.24
2019-05-14T17:29:28.160Z,23.45
2019-05-14T17:31:55.566Z,23.70
2019-05-14T17:34:23.183Z,22.74
2019-05-14T17:36:50.837Z,22.83
2019-05-14T17:39:18.876Z,22.30
2019-05-14T17:41:48.461Z,23.77
2019-05-14T17:44:15.974Z,22.75
2019-05-14T17:46:43.656Z,22.48
2019-05-14T17:49:11.278Z,23.05
2019-05-14T17:51:39.207Z,23.11
2019-05-14T17:54:09.106Z,22.74
2019-05-14T17:56:36.288Z,23.08
2019-05-14T17:59:03.932Z,23.15
2019-05-14T18:01:31.563Z,22.81
2019-05-14T18:03:59.222Z,22.47
2019-05-14T18:06:28.564Z,23.67
2019-05-14T18:08:58.388Z,23.15
2019-05-14T18:11:28.220Z,22.89
2019-05-14T18:13:55.352Z,22.89
2019-05-14T18:16:22.987Z,23.79
2019-05-14T18:18:50.671Z,23.72
2019-05-14T18:21:18.559Z,22.80
2019-05-14T18:26:34.770Z,23.82
2019-05-14T18:29:04.599Z,25.11
2019-05-14T18:31:33.125Z,25.00
2019-05-14T18:34:01.537Z,25.75
2019-05-14T18:36:29.977Z,26.28
2019-05-14T18:38:58.782Z,27.76
2019-05-14T18:41:29.398Z,28.85
2019-05-14T18:43:58.757Z,28.90
2019-05-14T18:46:28.537Z,28.13
2019-05-14T18:48:59.220Z,30.40
2019-05-14T18:51:28.766Z,31.35
2019-05-14T18:53:58.448Z,31.30
2019-05-14T18:56:29.305Z,29.94
2019-05-14T18:58:57.357Z,32.50
2019-05-14T19:01:28.634Z,32.11
2019-05-14T19:03:58.742Z,32.99
2019-05-14T19:06:28.380Z,33.43
2019-05-14T19:08:56.270Z,34.07
2019-05-14T19:11:24.712Z,34.31
2019-05-14T19:13:53.137Z,34.91
2019-05-14T19:16:21.556Z,35.75
2019-05-14T19:18:50.192Z,35.95
2019-05-14T19:21:18.614Z,36.78
2019-05-14T19:23:49.008Z,36.90
2019-05-14T19:26:32.523Z,37.26
2019-05-14T19:28:48.544Z,37.30
2019-05-14T19:31:18.384Z,35.52
2019-05-14T19:33:48.787Z,38.03
2019-05-14T19:36:18.765Z,38.29
2019-05-14T19:38:48.134Z,38.56
2019-05-14T19:41:18.856Z,38.60
2019-05-14T19:43:46.921Z,40.37
2019-05-14T19:46:15.334Z,39.63
2019-05-14T19:48:43.779Z,40.59
2019-05-14T19:51:12.192Z,39.92
2019-05-14T19:53:40.989Z,40.72
2019-05-14T19:56:09.411Z,40.25
2019-05-14T19:58:38.525Z,41.57
2019-05-14T20:01:09.137Z,41.52
2019-05-14T20:03:37.859Z,41.89
2019-05-14T20:06:08.819Z,41.73
2019-05-14T20:08:38.261Z,42.19
2019-05-14T20:11:05.791Z,39.10
2019-05-14T20:13:34.251Z,42.22
2019-05-14T20:16:02.668Z,42.61
2019-05-14T20:18:31.093Z,42.69
2019-05-14T20:20:59.513Z,43.56
2019-05-14T20:23:29.119Z,43.67
2019-05-14T20:25:58.718Z,44.56
2019-05-14T20:28:27.472Z,44.02
2019-05-14T20:30:58.516Z,44.54
2019-05-14T20:33:26.177Z,44.97
2019-05-14T20:35:54.587Z,45.22
2019-05-14T20:38:23.006Z,45.17
2019-05-14T20:40:51.429Z,46.68
2019-05-14T20:43:19.861Z,46.62
2019-05-14T20:45:48.811Z,47.01
2019-05-14T20:48:18.838Z,46.45
2019-05-14T20:50:47.774Z,47.34
2019-05-14T20:53:18.553Z,47.07
2019-05-14T20:55:46.404Z,47.68
2019-05-14T20:58:14.809Z,47.60
2019-05-14T21:00:43.227Z,48.05
2019-05-14T21:03:11.740Z,47.98
2019-05-14T21:05:42.392Z,48.00
2019-05-14T21:08:13.611Z,48.28
2019-05-14T21:10:40.433Z,48.21
2019-05-14T21:13:08.909Z,48.34
2019-05-14T21:15:39.119Z,47.88
2019-05-14T21:18:08.347Z,48.43
2019-05-14T21:20:39.311Z,49.28
2019-05-14T21:23:08.995Z,49.51
2019-05-14T21:25:38.741Z,49.11
2019-05-14T21:28:09.365Z,48.88
2019-05-14T21:30:38.816Z,50.24
2019-05-14T21:33:08.431Z,49.87
2019-05-14T21:35:38.909Z,49.35
2019-05-14T21:38:09.098Z,49.31
2019-05-14T21:40:38.902Z,49.11
2019-05-14T21:43:11.027Z,50.06
2019-05-14T21:45:38.441Z,49.64
2019-05-14T21:48:08.717Z,49.86
2019-05-14T21:50:38.810Z,49.53
2019-05-14T21:53:08.382Z,49.51
2019-05-14T21:55:38.817Z,50.34
2019-05-14T21:58:09.140Z,50.72
2019-05-14T22:00:42.426Z,50.72
2019-05-14T22:03:11.177Z,50.32
2019-05-14T22:05:39.688Z,51.35
2019-05-14T22:08:08.871Z,51.27
2019-05-14T22:10:39.708Z,51.98
2019-05-14T22:13:07.745Z,52.05
2019-05-14T22:15:38.662Z,52.73
2019-05-14T22:18:16.469Z,52.58
2019-05-14T22:20:38.564Z,52.73
2019-05-14T22:23:08.942Z,52.76
2019-05-14T22:25:39.325Z,52.83
2019-05-14T22:28:14.988Z,53.11
2019-05-14T22:30:38.809Z,54.34
2019-05-14T22:33:08.560Z,53.71
2019-05-14T22:35:39.694Z,54.47
2019-05-14T22:38:07.437Z,54.16
2019-05-14T22:40:35.878Z,54.21
2019-05-14T22:43:04.359Z,55.02
2019-05-14T22:45:32.774Z,55.04
2019-05-14T22:48:01.262Z,55.71
2019-05-14T22:50:29.668Z,55.11
2019-05-14T22:52:58.631Z,55.30
2019-05-14T22:55:30.990Z,54.96
2019-05-14T22:57:59.233Z,55.85
2019-05-14T23:00:28.562Z,56.13
2019-05-14T23:02:57.348Z,56.18
2019-05-14T23:05:25.773Z,56.59
2019-05-14T23:07:54.304Z,56.55
2019-05-14T23:10:22.735Z,56.81
2019-05-14T23:12:51.144Z,56.68
2019-05-14T23:15:19.593Z,56.82
2019-05-14T23:17:48.204Z,57.06
2019-05-14T23:20:19.372Z,57.65
2019-05-14T23:22:49.235Z,57.80
2019-05-14T23:25:18.439Z,57.81
2019-05-14T23:27:48.158Z,58.05
2019-05-14T23:30:19.934Z,58.11
2019-05-14T23:32:48.978Z,57.48
2019-05-14T23:35:18.769Z,58.24
2019-05-14T23:37:48.923Z,59.13
2019-05-14T23:40:18.061Z,58.83
2019-05-14T23:42:49.046Z,58.64
2019-05-14T23:45:18.929Z,59.32
2019-05-14T23:47:49.299Z,59.96
2019-05-14T23:50:17.080Z,59.65
2019-05-14T23:52:45.656Z,59.76
2019-05-14T23:55:14.160Z,60.48
2019-05-14T23:57:42.585Z,60.66
